createdAt,value
2018-07-03T00:01:03.038Z,1.07
2018-07-03T00:03:32.968Z,1.10
2018-07-03T00:06:02.880Z,1.00
2018-07-03T00:08:32.807Z,1.20
2018-07-03T00:11:02.862Z,1.20
2018-07-03T00:13:32.727Z,0.80
2018-07-03T00:16:02.655Z,1.10
2018-07-03T00:18:32.579Z,1.00
2018-07-03T00:21:02.521Z,1.00
2018-07-03T00:23:32.447Z,1.00
2018-07-03T00:26:02.366Z,1.10
2018-07-03T00:28:32.287Z,1.17
2018-07-03T00:31:02.223Z,1.03
2018-07-03T00:33:32.315Z,1.10
2018-07-03T00:36:02.268Z,1.00
2018-07-03T00:38:32.260Z,1.00
2018-07-03T00:41:02.055Z,0.90
2018-07-03T00:43:31.916Z,1.00
2018-07-03T00:46:01.872Z,0.90
2018-07-03T00:48:31.835Z,1.10
2018-07-03T00:51:01.813Z,1.00
2018-07-03T00:53:31.862Z,1.00
2018-07-03T00:56:01.813Z,1.10
2018-07-03T00:58:31.794Z,1.00
2018-07-03T01:01:01.803Z,1.10
2018-07-03T01:03:31.764Z,1.10
2018-07-03T01:06:01.770Z,1.23
2018-07-03T01:08:31.699Z,0.97
2018-07-03T01:11:01.688Z,0.97
2018-07-03T01:13:31.627Z,1.00
2018-07-03T01:16:01.683Z,1.10
2018-07-03T01:18:31.663Z,1.00
2018-07-03T01:21:01.615Z,1.17
2018-07-03T01:23:31.559Z,1.00
2018-07-03T01:26:01.516Z,0.90
2018-07-03T01:28:31.456Z,0.90
2018-07-03T01:31:01.415Z,0.90
2018-07-03T01:33:31.398Z,1.23
2018-07-03T01:36:01.401Z,1.10
2018-07-03T01:38:31.347Z,1.23
2018-07-03T01:41:01.347Z,1.00
2018-07-03T01:43:31.294Z,0.97
2018-07-03T01:46:01.267Z,0.90
2018-07-03T01:48:31.525Z,0.90
2018-07-03T01:51:01.483Z,1.10
2018-07-03T01:53:31.514Z,1.00
2018-07-03T01:56:01.485Z,1.00
2018-07-03T01:58:31.428Z,1.20
2018-07-03T02:01:01.388Z,1.10
2018-07-03T02:03:31.331Z,1.00
2018-07-03T02:06:01.295Z,1.10
2018-07-03T02:08:31.263Z,1.00
2018-07-03T02:11:01.260Z,0.93
2018-07-03T02:13:30.958Z,0.90
2018-07-03T02:16:00.797Z,1.00
2018-07-03T02:18:30.764Z,1.03
2018-07-03T02:21:00.707Z,0.90
2018-07-03T02:23:30.834Z,1.00
2018-07-03T02:26:00.791Z,1.00
2018-07-03T02:28:30.719Z,1.03
2018-07-03T02:31:00.676Z,1.00
2018-07-03T02:33:30.618Z,1.00
2018-07-03T02:36:00.573Z,1.00
2018-07-03T02:38:30.507Z,0.90
2018-07-03T02:41:00.514Z,1.07
2018-07-03T02:43:30.459Z,1.10
2018-07-03T02:46:00.424Z,0.90
2018-07-03T02:48:30.368Z,0.90
2018-07-03T02:51:00.325Z,1.00
2018-07-03T02:53:30.264Z,0.90
2018-07-03T02:56:00.208Z,1.00
2018-07-03T02:58:30.188Z,0.90
2018-07-03T03:01:00.150Z,1.10
2018-07-03T03:03:30.220Z,0.93
2018-07-03T03:06:00.202Z,1.10
2018-07-03T03:08:30.039Z,0.87
2018-07-03T03:10:59.866Z,0.90
2018-07-03T03:13:29.799Z,1.00
2018-07-03T03:15:59.756Z,0.80
2018-07-03T03:18:29.702Z,0.90
2018-07-03T03:20:59.658Z,0.90
2018-07-03T03:23:29.669Z,1.00
2018-07-03T03:25:59.611Z,1.00
2018-07-03T03:28:29.642Z,0.90
2018-07-03T03:30:59.596Z,1.10
2018-07-03T03:33:29.540Z,1.10
2018-07-03T03:35:59.503Z,1.00
2018-07-03T03:38:29.459Z,1.10
2018-07-03T03:40:59.396Z,1.10
2018-07-03T03:43:29.356Z,1.20
2018-07-03T03:45:59.304Z,1.10
2018-07-03T03:48:29.441Z,1.10
2018-07-03T03:50:59.565Z,1.03
2018-07-03T03:53:29.531Z,1.07
2018-07-03T03:55:59.494Z,1.10
2018-07-03T03:58:29.667Z,1.13
2018-07-03T04:00:59.640Z,1.20
2018-07-03T04:03:29.569Z,1.07
2018-07-03T04:05:59.511Z,0.90
2018-07-03T04:08:29.515Z,1.10
2018-07-03T04:10:59.460Z,1.00
2018-07-03T04:13:29.391Z,1.00
2018-07-03T04:15:59.356Z,0.90
2018-07-03T04:18:32.839Z,1.10
2018-07-03T04:21:06.819Z,1.00
2018-07-03T04:23:37.872Z,0.90
2018-07-03T04:26:07.934Z,1.00
2018-07-03T04:28:37.883Z,0.90
2018-07-03T04:31:07.840Z,1.00
2018-07-03T04:33:37.778Z,1.17
2018-07-03T04:36:07.751Z,1.10
2018-07-03T04:38:37.695Z,1.10
2018-07-03T04:41:07.667Z,1.03
2018-07-03T04:43:37.611Z,1.10
2018-07-03T04:46:07.551Z,1.20
2018-07-03T04:48:37.491Z,1.07
2018-07-03T04:51:07.568Z,1.10
2018-07-03T04:53:37.511Z,1.13
2018-07-03T04:56:07.447Z,1.50
2018-07-03T04:58:37.395Z,1.20
2018-07-03T05:01:07.792Z,1.40
2018-07-03T05:03:37.751Z,1.00
2018-07-03T05:06:07.691Z,1.10
2018-07-03T05:08:37.639Z,1.57
2018-07-03T05:11:07.579Z,1.10
2018-07-03T05:13:37.373Z,1.20
2018-07-03T05:16:07.227Z,1.20
2018-07-03T05:18:37.231Z,1.03
2018-07-03T05:21:07.235Z,0.90
2018-07-03T05:23:37.223Z,1.20
2018-07-03T05:26:07.255Z,1.20
2018-07-03T05:28:36.962Z,1.13
2018-07-03T05:31:06.947Z,1.40
2018-07-03T05:33:36.931Z,1.10
2018-07-03T05:36:06.890Z,1.10
2018-07-03T05:38:36.855Z,1.30
2018-07-03T05:41:07.224Z,1.00
2018-07-03T05:43:37.176Z,1.30
2018-07-03T05:46:07.184Z,1.20
2018-07-03T05:48:36.987Z,1.03
2018-07-03T05:51:06.803Z,1.27
2018-07-03T05:53:36.847Z,1.60
2018-07-03T05:56:06.796Z,1.40
2018-07-03T05:58:36.747Z,1.60
2018-07-03T06:01:06.714Z,1.30
2018-07-03T06:03:36.672Z,1.50
2018-07-03T06:06:06.631Z,1.30
2018-07-03T06:08:36.575Z,1.40
2018-07-03T06:11:06.565Z,1.20
2018-07-03T06:13:36.516Z,1.43
2018-07-03T06:16:06.455Z,1.40
2018-07-03T06:18:36.407Z,1.50
2018-07-03T06:21:06.549Z,1.43
2018-07-03T06:23:36.494Z,1.53
2018-07-03T06:26:06.444Z,1.50
2018-07-03T06:28:36.402Z,1.50
2018-07-03T06:31:06.647Z,1.33
2018-07-03T06:33:36.633Z,1.50
2018-07-03T06:36:06.764Z,1.77
2018-07-03T06:38:36.715Z,1.60
2018-07-03T06:41:06.751Z,1.60
2018-07-03T06:43:36.735Z,1.50
2018-07-03T06:46:06.856Z,1.70
2018-07-03T06:48:36.804Z,1.70
2018-07-03T06:51:06.756Z,1.87
2018-07-03T06:53:36.706Z,1.90
2018-07-03T06:56:06.760Z,1.53
2018-07-03T06:58:36.740Z,1.60
2018-07-03T07:01:06.758Z,1.70
2018-07-03T07:03:36.730Z,1.70
2018-07-03T07:06:06.680Z,1.85
2018-07-03T07:08:36.685Z,1.70
2018-07-03T07:11:06.595Z,1.85
2018-07-03T07:13:36.552Z,1.70
2018-07-03T07:16:06.495Z,2.00
2018-07-03T07:18:36.551Z,1.75
2018-07-03T07:21:06.515Z,1.90
2018-07-03T07:23:36.473Z,1.70
2018-07-03T07:26:06.423Z,1.62
2018-07-03T07:28:36.423Z,1.87
2018-07-03T07:31:06.566Z,1.90
2018-07-03T07:33:36.540Z,1.60
2018-07-03T07:36:06.523Z,1.55
2018-07-03T07:38:36.483Z,2.00
2018-07-03T07:41:06.624Z,1.65
2018-07-03T07:43:36.571Z,1.80
2018-07-03T07:46:06.535Z,1.70
2018-07-03T07:48:36.517Z,2.00
2018-07-03T07:51:06.592Z,1.70
2018-07-03T07:53:36.539Z,2.00
2018-07-03T07:56:06.513Z,1.70
2018-07-03T07:58:36.444Z,1.90
2018-07-03T08:01:06.520Z,2.10
2018-07-03T08:03:36.480Z,1.75
2018-07-03T08:06:06.493Z,2.00
2018-07-03T08:08:36.486Z,1.85
2018-07-03T08:11:06.455Z,2.00
2018-07-03T08:13:36.419Z,1.80
2018-07-03T08:16:06.511Z,2.10
2018-07-03T08:18:36.475Z,2.20
2018-07-03T08:21:06.427Z,1.95
2018-07-03T08:23:36.391Z,1.70
2018-07-03T08:26:06.879Z,2.40
2018-07-03T08:28:36.892Z,1.90
2018-07-03T08:31:06.855Z,2.52
2018-07-03T08:33:36.874Z,1.82
2018-07-03T08:36:06.842Z,1.95
2018-07-03T08:38:36.980Z,1.90
2018-07-03T08:41:07.311Z,2.00
2018-07-03T08:43:37.250Z,1.92
2018-07-03T08:46:07.226Z,1.87
2018-07-03T08:48:37.140Z,1.80
2018-07-03T08:51:07.114Z,1.82
2018-07-03T08:53:37.075Z,1.80
2018-07-03T08:56:07.023Z,1.90
2018-07-03T08:58:36.963Z,1.72
2018-07-03T09:01:07.171Z,1.82
2018-07-03T09:03:37.123Z,2.00
2018-07-03T09:06:07.267Z,1.90
2018-07-03T09:08:37.220Z,1.90
2018-07-03T09:11:07.529Z,1.80
2018-07-03T09:13:37.479Z,1.95
2018-07-03T09:16:07.671Z,1.87
2018-07-03T09:18:37.627Z,1.80
2018-07-03T09:21:07.631Z,1.90
2018-07-03T09:23:41.020Z,1.72
2018-07-03T09:26:10.791Z,1.80
2018-07-03T09:28:41.089Z,1.75
2018-07-03T09:31:11.051Z,2.00
2018-07-03T09:33:41.003Z,2.10
2018-07-03T09:36:10.972Z,1.85
2018-07-03T09:38:40.986Z,1.98
2018-07-03T09:41:10.963Z,2.00
2018-07-03T09:43:40.939Z,1.80
2018-07-03T09:46:10.905Z,1.72
2018-07-03T09:48:40.859Z,1.87
2018-07-03T09:51:10.831Z,1.80
2018-07-03T09:53:40.891Z,1.98
2018-07-03T09:56:10.868Z,2.10
2018-07-03T09:58:40.837Z,2.00
2018-07-03T10:01:16.068Z,1.80
2018-07-03T10:03:46.351Z,1.92
2018-07-03T10:06:16.434Z,2.08
2018-07-03T10:08:46.387Z,1.90
2018-07-03T10:11:16.339Z,2.08
2018-07-03T10:13:46.429Z,2.10
2018-07-03T10:16:16.371Z,2.20
2018-07-03T10:18:46.371Z,2.05
2018-07-03T10:21:16.110Z,2.10
2018-07-03T10:23:46.024Z,2.20
2018-07-03T10:26:16.012Z,2.20
2018-07-03T10:28:45.973Z,2.22
2018-07-03T10:31:16.051Z,2.22
2018-07-03T10:33:46.164Z,2.20
2018-07-03T10:36:16.093Z,2.20
2018-07-03T10:38:46.084Z,2.02
2018-07-03T10:41:16.100Z,2.20
2018-07-03T10:43:46.226Z,2.20
2018-07-03T10:46:16.151Z,2.20
2018-07-03T10:48:46.129Z,2.20
2018-07-03T10:51:16.072Z,2.40
2018-07-03T10:53:46.109Z,2.30
2018-07-03T10:56:16.053Z,2.10
2018-07-03T10:58:46.035Z,2.17
2018-07-03T11:01:16.200Z,2.05
2018-07-03T11:03:46.171Z,2.05
2018-07-03T11:06:16.219Z,1.90
2018-07-03T11:08:46.176Z,2.10
2018-07-03T11:11:16.142Z,2.20
2018-07-03T11:13:46.240Z,1.70
2018-07-03T11:16:16.151Z,1.70
2018-07-03T11:18:46.303Z,1.98
2018-07-03T11:21:16.251Z,2.00
2018-07-03T11:23:46.227Z,1.70
2018-07-03T11:26:16.187Z,1.90
2018-07-03T11:28:46.175Z,1.90
2018-07-03T11:31:16.123Z,1.77
2018-07-03T11:33:46.170Z,1.72
2018-07-03T11:36:16.157Z,1.80
2018-07-03T11:38:46.241Z,1.90
2018-07-03T11:41:16.196Z,2.02
2018-07-03T11:43:46.177Z,1.72
2018-07-03T11:46:16.415Z,2.00
2018-07-03T11:48:46.282Z,1.85
2018-07-03T11:51:15.867Z,1.80
2018-07-03T11:53:45.693Z,1.82
2018-07-03T11:56:15.646Z,1.80
2018-07-03T11:58:45.612Z,2.00
2018-07-03T12:01:15.563Z,2.10
2018-07-03T12:03:45.580Z,2.10
2018-07-03T12:06:15.559Z,2.10
2018-07-03T12:08:45.547Z,2.05
2018-07-03T12:11:15.532Z,2.08
2018-07-03T12:13:45.478Z,2.08
2018-07-03T12:16:15.436Z,2.22
2018-07-03T12:18:50.743Z,2.05
2018-07-03T12:21:20.829Z,2.40
2018-07-03T12:23:51.392Z,2.62
2018-07-03T12:26:21.170Z,2.30
2018-07-03T12:28:51.140Z,2.40
2018-07-03T12:31:21.477Z,2.12
2018-07-03T12:33:51.887Z,2.40
2018-07-03T12:36:21.875Z,2.50
2018-07-03T12:38:51.819Z,2.30
2018-07-03T12:41:21.883Z,2.10
2018-07-03T12:43:52.339Z,2.40
2018-07-03T12:46:22.303Z,2.47
2018-07-03T12:48:52.267Z,2.00
2018-07-03T12:51:22.235Z,2.40
2018-07-03T12:53:52.332Z,2.30
2018-07-03T12:56:22.095Z,2.30
2018-07-03T12:58:52.670Z,2.42
2018-07-03T13:01:22.748Z,2.10
2018-07-03T13:03:52.764Z,2.30
2018-07-03T13:06:22.744Z,2.10
2018-07-03T13:08:52.711Z,1.75
2018-07-03T13:11:22.661Z,2.00
2018-07-03T13:13:53.023Z,2.30
2018-07-03T13:16:22.975Z,2.27
2018-07-03T13:18:52.952Z,2.00
2018-07-03T13:21:23.003Z,2.10
2018-07-03T13:23:53.049Z,2.22
2018-07-03T13:26:23.006Z,2.10
2018-07-03T13:28:52.977Z,1.87
2018-07-03T13:31:22.940Z,2.20
2018-07-03T13:33:53.275Z,2.00
2018-07-03T13:36:23.324Z,2.05
2018-07-03T13:38:53.235Z,2.00
2018-07-03T13:41:23.202Z,2.02
2018-07-03T13:43:53.416Z,2.08
2018-07-03T13:46:23.359Z,1.90
2018-07-03T13:48:53.382Z,1.80
2018-07-03T13:51:23.095Z,1.80
2018-07-03T13:53:53.123Z,2.00
2018-07-03T13:56:23.077Z,1.60
2018-07-03T13:58:53.456Z,1.80
2018-07-03T14:01:23.455Z,1.65
2018-07-03T14:03:53.740Z,1.60
2018-07-03T14:06:23.693Z,1.60
2018-07-03T14:08:53.427Z,1.90
2018-07-03T14:11:23.248Z,1.60
2018-07-03T14:13:54.075Z,1.50
2018-07-03T14:16:24.044Z,1.87
2018-07-03T14:18:54.031Z,2.00
2018-07-03T14:21:23.981Z,1.42
2018-07-03T14:23:54.111Z,1.30
2018-07-03T14:26:24.055Z,1.50
2018-07-03T14:28:54.059Z,1.50
2018-07-03T14:31:24.167Z,1.60
2018-07-03T14:33:54.311Z,1.50
2018-07-03T14:36:24.356Z,1.50
2018-07-03T14:38:54.243Z,1.40
2018-07-03T14:41:24.215Z,1.35
2018-07-03T14:43:54.455Z,1.50
2018-07-03T14:46:24.445Z,1.45
2018-07-03T14:48:54.397Z,1.40
2018-07-03T14:51:24.563Z,1.50
2018-07-03T14:53:54.675Z,1.20
2018-07-03T14:56:24.684Z,1.42
2018-07-03T14:58:54.655Z,1.55
2018-07-03T15:01:24.631Z,1.47
2018-07-03T15:03:54.695Z,1.50
2018-07-03T15:06:24.699Z,1.87
2018-07-03T15:08:54.688Z,1.80
2018-07-03T15:11:24.730Z,1.60
2018-07-03T15:13:55.135Z,1.50
2018-07-03T15:16:25.135Z,1.62
2018-07-03T15:19:00.300Z,1.47
2018-07-03T15:21:30.269Z,1.60
2018-07-03T15:24:00.273Z,1.80
2018-07-03T15:26:30.264Z,1.70
2018-07-03T15:29:00.235Z,1.75
2018-07-03T15:31:30.207Z,1.80
2018-07-03T15:34:00.172Z,1.60
2018-07-03T15:36:30.131Z,1.80
2018-07-03T15:39:00.093Z,1.80
2018-07-03T15:41:30.075Z,1.42
2018-07-03T15:44:17.342Z,1.72
2018-07-03T15:46:47.343Z,1.57
2018-07-03T15:49:17.539Z,1.50
2018-07-03T15:51:47.855Z,1.72
2018-07-03T15:54:17.819Z,1.75
2018-07-03T15:56:47.779Z,1.72
2018-07-03T15:59:17.771Z,1.65
2018-07-03T16:01:47.803Z,1.70
2018-07-03T16:06:31.435Z,1.80
2018-07-03T16:09:08.002Z,1.90
2018-07-03T16:11:39.160Z,1.92
2018-07-03T16:14:10.551Z,1.98
2018-07-03T16:16:41.036Z,2.22
2018-07-03T16:19:16.255Z,4.17
2018-07-03T16:21:46.490Z,1.77
2018-07-03T16:24:16.443Z,1.70
2018-07-03T16:26:46.403Z,2.05
2018-07-03T16:29:16.362Z,1.70
2018-07-03T16:31:46.312Z,1.80
2018-07-03T16:34:16.259Z,1.60
2018-07-03T16:36:46.210Z,1.90
2018-07-03T16:39:16.169Z,1.50
2018-07-03T16:41:46.147Z,1.60
2018-07-03T16:44:16.106Z,1.65
2018-07-03T16:46:46.064Z,1.60
2018-07-03T16:49:16.024Z,1.82
2018-07-03T16:51:45.972Z,1.67
2018-07-03T16:54:15.946Z,1.40
2018-07-03T16:56:46.081Z,1.67
2018-07-03T16:59:16.031Z,1.67
2018-07-03T17:01:46.155Z,1.80
2018-07-03T17:04:16.107Z,1.70
2018-07-03T17:06:46.168Z,1.92
2018-07-03T17:09:16.111Z,1.60
2018-07-03T17:11:46.176Z,1.60
2018-07-03T17:14:16.155Z,1.52
2018-07-03T17:16:46.652Z,1.60
2018-07-03T17:19:22.036Z,1.60
2018-07-03T17:21:52.013Z,1.72
2018-07-03T17:24:22.011Z,1.70
2018-07-03T17:26:51.967Z,2.05
2018-07-03T17:29:21.943Z,1.70
2018-07-03T17:31:51.943Z,1.70
2018-07-03T17:34:22.036Z,1.90
2018-07-03T17:36:52.009Z,1.70
2018-07-03T17:39:21.983Z,1.70
2018-07-03T17:42:09.213Z,1.80
2018-07-03T17:44:51.879Z,1.80
2018-07-03T17:47:21.865Z,1.72
2018-07-03T17:49:51.819Z,1.70
2018-07-03T17:52:21.798Z,1.95
2018-07-03T17:54:51.754Z,1.82
2018-07-03T17:57:21.720Z,1.67
2018-07-03T17:59:51.670Z,1.80
2018-07-03T18:02:21.652Z,1.50
2018-07-03T18:04:51.782Z,1.50
2018-07-03T18:07:21.755Z,1.80
2018-07-03T18:09:51.700Z,1.60
2018-07-03T18:12:21.679Z,1.67
2018-07-03T18:14:51.464Z,2.50
2018-07-03T18:17:21.312Z,2.92
2018-07-03T18:19:51.371Z,4.00
2018-07-03T18:22:21.353Z,3.30
2018-07-03T18:24:51.351Z,3.98
2018-07-03T18:27:21.377Z,2.95
2018-07-03T18:29:51.318Z,3.62
2018-07-03T18:32:21.288Z,3.10
2018-07-03T18:34:51.344Z,2.95
2018-07-03T18:37:21.311Z,2.70
2018-07-03T18:39:51.447Z,2.10
2018-07-03T18:42:21.211Z,1.80
2018-07-03T18:44:51.074Z,1.60
2018-07-03T18:47:21.054Z,1.70
2018-07-03T18:49:50.991Z,1.50
2018-07-03T18:52:20.963Z,1.42
2018-07-03T18:54:50.930Z,1.77
2018-07-03T18:57:20.985Z,1.70
2018-07-03T18:59:50.943Z,1.40
2018-07-03T19:02:20.920Z,1.60
2018-07-03T19:04:50.871Z,1.40
2018-07-03T19:07:20.880Z,1.40
2018-07-03T19:09:50.579Z,1.70
2018-07-03T19:12:20.480Z,1.60
2018-07-03T19:14:50.415Z,1.47
2018-07-03T19:17:20.265Z,1.30
2018-07-03T19:19:50.089Z,1.40
2018-07-03T19:22:20.044Z,1.50
2018-07-03T19:24:49.995Z,1.60
2018-07-03T19:27:19.971Z,1.40
2018-07-03T19:29:50.013Z,1.50
2018-07-03T19:32:19.979Z,1.30
2018-07-03T19:34:49.924Z,1.60
2018-07-03T19:37:19.908Z,1.60
2018-07-03T19:39:49.944Z,1.60
2018-07-03T19:42:19.843Z,1.50
2018-07-03T19:44:49.775Z,1.53
2018-07-03T19:47:19.855Z,1.43
2018-07-03T19:49:49.794Z,1.40
2018-07-03T19:52:19.743Z,1.40
2018-07-03T19:54:49.698Z,1.33
2018-07-03T19:57:19.680Z,1.30
2018-07-03T19:59:49.651Z,1.53
2018-07-03T20:02:19.611Z,1.60
2018-07-03T20:04:50.347Z,1.10
2018-07-03T20:07:20.304Z,1.20
2018-07-03T20:09:50.251Z,1.50
2018-07-03T20:12:20.288Z,1.43
2018-07-03T20:14:50.335Z,1.30
2018-07-03T20:17:20.202Z,1.67
2018-07-03T20:19:50.087Z,1.57
2018-07-03T20:22:20.060Z,1.20
2018-07-03T20:24:50.084Z,1.30
2018-07-03T20:27:19.968Z,1.40
2018-07-03T20:29:49.964Z,1.20
2018-07-03T20:32:19.932Z,1.27
2018-07-03T20:34:49.907Z,1.30
2018-07-03T20:37:19.868Z,1.47
2018-07-03T20:39:49.828Z,1.30
2018-07-03T20:42:19.833Z,1.20
2018-07-03T20:44:49.751Z,1.37
2018-07-03T20:47:19.703Z,1.30
2018-07-03T20:49:49.686Z,1.50
2018-07-03T20:52:19.627Z,1.50
2018-07-03T20:54:49.597Z,1.40
2018-07-03T20:57:19.334Z,1.40
2018-07-03T20:59:49.181Z,1.30
2018-07-03T21:02:19.086Z,1.57
2018-07-03T21:04:49.063Z,1.60
2018-07-03T21:07:19.102Z,1.70
2018-07-03T21:09:49.195Z,1.50
2018-07-03T21:12:19.233Z,1.43
2018-07-03T21:14:49.220Z,1.50
2018-07-03T21:17:19.180Z,1.23
2018-07-03T21:19:49.152Z,1.40
2018-07-03T21:22:19.100Z,1.40
2018-07-03T21:24:49.063Z,1.60
2018-07-03T21:27:19.011Z,1.60
2018-07-03T21:29:48.963Z,1.37
2018-07-03T21:32:19.010Z,1.40
2018-07-03T21:34:48.986Z,1.30
2018-07-03T21:37:18.940Z,1.40
2018-07-03T21:39:49.049Z,1.57
2018-07-03T21:42:18.998Z,1.37
2018-07-03T21:44:48.960Z,1.40
2018-07-03T21:47:18.666Z,1.47
2018-07-03T21:49:48.604Z,1.30
2018-07-03T21:52:18.570Z,1.20
2018-07-03T21:54:48.545Z,1.33
2018-07-03T21:57:18.492Z,1.40
2018-07-03T21:59:48.472Z,1.50
2018-07-03T22:02:18.428Z,1.50
2018-07-03T22:04:48.148Z,1.40
2018-07-03T22:07:18.020Z,1.60
2018-07-03T22:09:47.982Z,1.37
2018-07-03T22:12:17.953Z,1.50
2018-07-03T22:14:47.917Z,1.47
2018-07-03T22:17:17.882Z,1.40
2018-07-03T22:19:47.838Z,1.60
2018-07-03T22:22:17.779Z,1.83
2018-07-03T22:24:47.744Z,1.30
2018-07-03T22:27:17.749Z,1.20
2018-07-03T22:29:47.661Z,1.20
2018-07-03T22:32:17.824Z,1.30
2018-07-03T22:34:47.816Z,1.23
2018-07-03T22:37:17.766Z,1.47
2018-07-03T22:39:47.830Z,1.30
2018-07-03T22:42:17.761Z,1.70
2018-07-03T22:44:47.733Z,1.40
2018-07-03T22:47:17.686Z,1.47
2018-07-03T22:49:47.645Z,1.20
2018-07-03T22:52:17.689Z,1.20
2018-07-03T22:54:47.662Z,1.33
2018-07-03T22:57:17.620Z,1.57
2018-07-03T22:59:47.583Z,1.43
2018-07-03T23:02:17.540Z,1.30
2018-07-03T23:04:47.455Z,1.30
2018-07-03T23:07:17.289Z,1.20
2018-07-03T23:09:47.249Z,1.50
2018-07-03T23:12:19.582Z,1.30
2018-07-03T23:14:51.320Z,1.23
2018-07-03T23:17:22.171Z,1.20
2018-07-03T23:19:52.156Z,1.33
2018-07-03T23:22:22.116Z,1.60
2018-07-03T23:24:52.078Z,1.30
2018-07-03T23:27:22.040Z,1.60
2018-07-03T23:29:52.000Z,1.50
2018-07-03T23:32:21.955Z,1.40
2018-07-03T23:34:51.933Z,1.33
2018-07-03T23:37:21.876Z,1.50
2018-07-03T23:39:51.835Z,1.50
2018-07-03T23:42:21.796Z,1.30
2018-07-03T23:44:51.853Z,1.40
2018-07-03T23:47:38.924Z,1.40
2018-07-03T23:50:25.932Z,1.50
2018-07-03T23:53:13.090Z,1.30
2018-07-03T23:56:00.145Z,1.50
2018-07-03T23:58:47.454Z,1.37
